sensor_id;sensor_type;location;lat;lon;timestamp;P1;durP1;ratioP1;P2;durP2;ratioP2
3587;SDS011;1808;53.596;9.972;2023-01-04T00:01:41;11.82;;;4.78;;
3587;SDS011;1808;53.596;9.972;2023-01-04T00:04:08;11.35;;;5.47;;
3587;SDS011;1808;53.596;9.972;2023-01-04T00:06:36;14.30;;;5.80;;
3587;SDS011;1808;53.596;9.972;2023-01-04T00:09:02;13.18;;;5.78;;
3587;SDS011;1808;53.596;9.972;2023-01-04T00:11:29;13.82;;;5.50;;
3587;SDS011;1808;53.596;9.972;2023-01-04T00:13:56;12.98;;;4.60;;
3587;SDS011;1808;53.596;9.972;2023-01-04T00:16:24;14.68;;;4.82;;
3587;SDS011;1808;53.596;9.972;2023-01-04T00:18:52;13.45;;;4.22;;
3587;SDS011;1808;53.596;9.972;2023-01-04T00:21:20;10.70;;;4.25;;
3587;SDS011;1808;53.596;9.972;2023-01-04T00:23:49;12.65;;;4.35;;
3587;SDS011;1808;53.596;9.972;2023-01-04T00:26:19;7.53;;;4.40;;
3587;SDS011;1808;53.596;9.972;2023-01-04T00:28:46;12.48;;;4.30;;
3587;SDS011;1808;53.596;9.972;2023-01-04T00:31:13;10.13;;;4.20;;
3587;SDS011;1808;53.596;9.972;2023-01-04T00:33:40;12.25;;;4.00;;
3587;SDS011;1808;53.596;9.972;2023-01-04T00:36:07;8.00;;;3.47;;
3587;SDS011;1808;53.596;9.972;2023-01-04T00:38:35;10.52;;;4.40;;
3587;SDS011;1808;53.596;9.972;2023-01-04T00:41:03;12.50;;;4.40;;
3587;SDS011;1808;53.596;9.972;2023-01-04T00:43:31;8.77;;;3.63;;
3587;SDS011;1808;53.596;9.972;2023-01-04T00:45:57;14.23;;;3.92;;
3587;SDS011;1808;53.596;9.972;2023-01-04T00:48:25;13.52;;;4.78;;
3587;SDS011;1808;53.596;9.972;2023-01-04T00:50:51;20.30;;;6.57;;
3587;SDS011;1808;53.596;9.972;2023-01-04T00:53:18;9.07;;;4.18;;
3587;SDS011;1808;53.596;9.972;2023-01-04T00:55:44;12.63;;;3.67;;
3587;SDS011;1808;53.596;9.972;2023-01-04T00:58:12;14.48;;;3.78;;
3587;SDS011;1808;53.596;9.972;2023-01-04T01:00:39;8.57;;;3.80;;
3587;SDS011;1808;53.596;9.972;2023-01-04T01:03:06;9.57;;;3.67;;
3587;SDS011;1808;53.596;9.972;2023-01-04T01:05:32;9.85;;;3.85;;
3587;SDS011;1808;53.596;9.972;2023-01-04T01:07:59;9.48;;;4.20;;
3587;SDS011;1808;53.596;9.972;2023-01-04T01:10:47;8.90;;;2.90;;
3587;SDS011;1808;53.596;9.972;2023-01-04T01:13:15;10.13;;;3.72;;
3587;SDS011;1808;53.596;9.972;2023-01-04T01:15:41;11.52;;;3.58;;
3587;SDS011;1808;53.596;9.972;2023-01-04T01:18:08;12.55;;;3.92;;
3587;SDS011;1808;53.596;9.972;2023-01-04T01:20:34;5.97;;;2.75;;
3587;SDS011;1808;53.596;9.972;2023-01-04T01:23:00;16.77;;;3.15;;
3587;SDS011;1808;53.596;9.972;2023-01-04T01:25:27;11.07;;;2.92;;
3587;SDS011;1808;53.596;9.972;2023-01-04T01:27:53;6.53;;;2.22;;
3587;SDS011;1808;53.596;9.972;2023-01-04T01:30:21;8.80;;;3.03;;
3587;SDS011;1808;53.596;9.972;2023-01-04T01:32:47;10.75;;;3.22;;
3587;SDS011;1808;53.596;9.972;2023-01-04T01:35:14;8.38;;;3.10;;
3587;SDS011;1808;53.596;9.972;2023-01-04T01:37:41;10.07;;;3.53;;
3587;SDS011;1808;53.596;9.972;2023-01-04T01:40:08;13.35;;;3.30;;
3587;SDS011;1808;53.596;9.972;2023-01-04T01:42:35;10.75;;;3.10;;
3587;SDS011;1808;53.596;9.972;2023-01-04T01:45:02;10.90;;;2.95;;
3587;SDS011;1808;53.596;9.972;2023-01-04T01:47:38;11.93;;;3.13;;
3587;SDS011;1808;53.596;9.972;2023-01-04T01:50:07;9.55;;;2.72;;
3587;SDS011;1808;53.596;9.972;2023-01-04T01:52:44;12.32;;;2.50;;
3587;SDS011;1808;53.596;9.972;2023-01-04T01:55:10;14.27;;;3.15;;
3587;SDS011;1808;53.596;9.972;2023-01-04T01:57:37;11.00;;;3.55;;
3587;SDS011;1808;53.596;9.972;2023-01-04T02:00:05;9.98;;;3.15;;
3587;SDS011;1808;53.596;9.972;2023-01-04T02:02:33;6.43;;;2.45;;
3587;SDS011;1808;53.596;9.972;2023-01-04T02:05:02;13.40;;;3.25;;
3587;SDS011;1808;53.596;9.972;2023-01-04T02:07:29;4.72;;;2.28;;
3587;SDS011;1808;53.596;9.972;2023-01-04T02:09:55;9.10;;;2.40;;
3587;SDS011;1808;53.596;9.972;2023-01-04T02:12:23;9.65;;;3.25;;
3587;SDS011;1808;53.596;9.972;2023-01-04T02:14:50;6.82;;;2.60;;
3587;SDS011;1808;53.596;9.972;2023-01-04T02:17:19;6.75;;;2.72;;
3587;SDS011;1808;53.596;9.972;2023-01-04T02:19:58;10.23;;;2.55;;
3587;SDS011;1808;53.596;9.972;2023-01-04T02:25:57;7.38;;;2.28;;
3587;SDS011;1808;53.596;9.972;2023-01-04T02:28:55;10.98;;;3.20;;
3587;SDS011;1808;53.596;9.972;2023-01-04T02:31:40;6.78;;;2.72;;
3587;SDS011;1808;53.596;9.972;2023-01-04T02:34:10;7.65;;;2.75;;
3587;SDS011;1808;53.596;9.972;2023-01-04T02:36:43;6.40;;;2.60;;
3587;SDS011;1808;53.596;9.972;2023-01-04T02:39:16;10.85;;;3.60;;
3587;SDS011;1808;53.596;9.972;2023-01-04T02:41:49;6.90;;;2.53;;
3587;SDS011;1808;53.596;9.972;2023-01-04T02:44:18;7.70;;;2.53;;
3587;SDS011;1808;53.596;9.972;2023-01-04T02:47:08;11.65;;;2.90;;
3587;SDS011;1808;53.596;9.972;2023-01-04T02:49:36;7.32;;;2.60;;
3587;SDS011;1808;53.596;9.972;2023-01-04T02:52:20;9.75;;;2.85;;
3587;SDS011;1808;53.596;9.972;2023-01-04T02:54:48;15.60;;;3.65;;
3587;SDS011;1808;53.596;9.972;2023-01-04T02:57:22;6.63;;;2.60;;
3587;SDS011;1808;53.596;9.972;2023-01-04T02:59:57;7.38;;;2.22;;
3587;SDS011;1808;53.596;9.972;2023-01-04T03:02:37;9.93;;;3.00;;
3587;SDS011;1808;53.596;9.972;2023-01-04T03:05:36;6.93;;;2.55;;
3587;SDS011;1808;53.596;9.972;2023-01-04T03:08:26;8.90;;;2.70;;
3587;SDS011;1808;53.596;9.972;2023-01-04T03:10:55;10.63;;;2.35;;
3587;SDS011;1808;53.596;9.972;2023-01-04T03:13:26;10.05;;;3.28;;
3587;SDS011;1808;53.596;9.972;2023-01-04T03:15:56;7.10;;;2.60;;
3587;SDS011;1808;53.596;9.972;2023-01-04T03:18:26;4.55;;;2.50;;
3587;SDS011;1808;53.596;9.972;2023-01-04T03:20:54;10.45;;;2.60;;
3587;SDS011;1808;53.596;9.972;2023-01-04T03:23:23;9.73;;;2.53;;
3587;SDS011;1808;53.596;9.972;2023-01-04T03:26:09;7.10;;;3.38;;
3587;SDS011;1808;53.596;9.972;2023-01-04T03:28:54;6.70;;;3.03;;
3587;SDS011;1808;53.596;9.972;2023-01-04T03:31:41;7.15;;;2.72;;
3587;SDS011;1808;53.596;9.972;2023-01-04T03:34:28;8.32;;;2.88;;
3587;SDS011;1808;53.596;9.972;2023-01-04T03:37:13;9.13;;;2.38;;
3587;SDS011;1808;53.596;9.972;2023-01-04T03:39:48;6.93;;;2.63;;
3587;SDS011;1808;53.596;9.972;2023-01-04T03:42:43;12.95;;;3.20;;
3587;SDS011;1808;53.596;9.972;2023-01-04T03:45:30;8.63;;;2.65;;
3587;SDS011;1808;53.596;9.972;2023-01-04T03:48:17;7.55;;;2.92;;
3587;SDS011;1808;53.596;9.972;2023-01-04T03:53:49;7.32;;;2.72;;
3587;SDS011;1808;53.596;9.972;2023-01-04T03:56:17;8.00;;;2.80;;
3587;SDS011;1808;53.596;9.972;2023-01-04T03:58:46;8.98;;;2.75;;
3587;SDS011;1808;53.596;9.972;2023-01-04T04:01:12;10.38;;;4.03;;
3587;SDS011;1808;53.596;9.972;2023-01-04T04:03:39;8.10;;;2.45;;
3587;SDS011;1808;53.596;9.972;2023-01-04T04:06:24;11.65;;;2.90;;
3587;SDS011;1808;53.596;9.972;2023-01-04T04:09:08;16.58;;;2.70;;
3587;SDS011;1808;53.596;9.972;2023-01-04T04:11:34;8.80;;;3.45;;
3587;SDS011;1808;53.596;9.972;2023-01-04T04:14:01;6.25;;;2.25;;
3587;SDS011;1808;53.596;9.972;2023-01-04T04:16:27;8.10;;;2.60;;
3587;SDS011;1808;53.596;9.972;2023-01-04T04:18:54;8.25;;;3.15;;
3587;SDS011;1808;53.596;9.972;2023-01-04T04:21:20;11.27;;;3.70;;
3587;SDS011;1808;53.596;9.972;2023-01-04T04:23:48;9.45;;;3.17;;
3587;SDS011;1808;53.596;9.972;2023-01-04T04:26:15;10.95;;;3.05;;
3587;SDS011;1808;53.596;9.972;2023-01-04T04:28:41;9.60;;;3.33;;
3587;SDS011;1808;53.596;9.972;2023-01-04T04:31:08;11.13;;;3.08;;
3587;SDS011;1808;53.596;9.972;2023-01-04T04:33:34;7.57;;;3.00;;
3587;SDS011;1808;53.596;9.972;2023-01-04T04:36:01;7.47;;;2.20;;
3587;SDS011;1808;53.596;9.972;2023-01-04T04:38:27;7.63;;;2.70;;
3587;SDS011;1808;53.596;9.972;2023-01-04T04:40:55;9.23;;;3.22;;
3587;SDS011;1808;53.596;9.972;2023-01-04T04:43:39;9.50;;;3.00;;
3587;SDS011;1808;53.596;9.972;2023-01-04T04:46:05;9.55;;;4.00;;
3587;SDS011;1808;53.596;9.972;2023-01-04T04:48:31;11.10;;;3.65;;
3587;SDS011;1808;53.596;9.972;2023-01-04T04:50:58;8.50;;;3.28;;
3587;SDS011;1808;53.596;9.972;2023-01-04T04:53:24;8.75;;;3.35;;
3587;SDS011;1808;53.596;9.972;2023-01-04T04:55:51;10.65;;;3.33;;
3587;SDS011;1808;53.596;9.972;2023-01-04T04:58:18;7.82;;;2.80;;
3587;SDS011;1808;53.596;9.972;2023-01-04T05:00:45;11.48;;;3.05;;
3587;SDS011;1808;53.596;9.972;2023-01-04T05:03:11;14.13;;;3.97;;
3587;SDS011;1808;53.596;9.972;2023-01-04T05:05:38;9.90;;;3.53;;
3587;SDS011;1808;53.596;9.972;2023-01-04T05:08:04;13.32;;;5.28;;
3587;SDS011;1808;53.596;9.972;2023-01-04T05:10:30;12.40;;;3.40;;
3587;SDS011;1808;53.596;9.972;2023-01-04T05:12:57;13.45;;;3.83;;
3587;SDS011;1808;53.596;9.972;2023-01-04T05:15:26;12.38;;;5.32;;
3587;SDS011;1808;53.596;9.972;2023-01-04T05:17:54;12.18;;;3.72;;
3587;SDS011;1808;53.596;9.972;2023-01-04T05:20:20;9.25;;;4.53;;
3587;SDS011;1808;53.596;9.972;2023-01-04T05:22:46;10.35;;;3.92;;
3587;SDS011;1808;53.596;9.972;2023-01-04T05:25:13;7.88;;;3.50;;
3587;SDS011;1808;53.596;9.972;2023-01-04T05:27:39;7.85;;;3.80;;
3587;SDS011;1808;53.596;9.972;2023-01-04T05:30:06;14.82;;;3.10;;
3587;SDS011;1808;53.596;9.972;2023-01-04T05:32:51;10.68;;;3.47;;
3587;SDS011;1808;53.596;9.972;2023-01-04T05:35:17;8.43;;;3.33;;
3587;SDS011;1808;53.596;9.972;2023-01-04T05:37:43;12.60;;;3.15;;
3587;SDS011;1808;53.596;9.972;2023-01-04T05:40:10;7.05;;;3.33;;
3587;SDS011;1808;53.596;9.972;2023-01-04T05:42:36;7.05;;;2.83;;
3587;SDS011;1808;53.596;9.972;2023-01-04T05:45:03;9.25;;;3.38;;
3587;SDS011;1808;53.596;9.972;2023-01-04T05:47:30;7.72;;;3.60;;
3587;SDS011;1808;53.596;9.972;2023-01-04T05:49:58;7.97;;;2.58;;
3587;SDS011;1808;53.596;9.972;2023-01-04T05:52:24;8.73;;;2.90;;
3587;SDS011;1808;53.596;9.972;2023-01-04T05:54:51;7.65;;;2.75;;
3587;SDS011;1808;53.596;9.972;2023-01-04T05:57:17;8.50;;;3.33;;
3587;SDS011;1808;53.596;9.972;2023-01-04T05:59:44;8.73;;;3.25;;
3587;SDS011;1808;53.596;9.972;2023-01-04T06:02:14;9.15;;;3.72;;
3587;SDS011;1808;53.596;9.972;2023-01-04T06:04:42;7.45;;;2.83;;
3587;SDS011;1808;53.596;9.972;2023-01-04T06:07:10;7.40;;;3.03;;
3587;SDS011;1808;53.596;9.972;2023-01-04T06:09:36;8.23;;;3.08;;
3587;SDS011;1808;53.596;9.972;2023-01-04T06:12:03;8.18;;;2.97;;
3587;SDS011;1808;53.596;9.972;2023-01-04T06:14:29;6.65;;;3.15;;
3587;SDS011;1808;53.596;9.972;2023-01-04T06:16:56;8.38;;;3.45;;
3587;SDS011;1808;53.596;9.972;2023-01-04T06:19:22;9.73;;;4.03;;
3587;SDS011;1808;53.596;9.972;2023-01-04T06:21:48;8.90;;;3.03;;
3587;SDS011;1808;53.596;9.972;2023-01-04T06:24:16;9.80;;;2.90;;
3587;SDS011;1808;53.596;9.972;2023-01-04T06:26:42;11.20;;;3.95;;
3587;SDS011;1808;53.596;9.972;2023-01-04T06:29:09;9.68;;;3.95;;
3587;SDS011;1808;53.596;9.972;2023-01-04T06:31:36;12.80;;;2.70;;
3587;SDS011;1808;53.596;9.972;2023-01-04T06:34:02;10.30;;;3.92;;
3587;SDS011;1808;53.596;9.972;2023-01-04T06:36:29;9.73;;;3.88;;
3587;SDS011;1808;53.596;9.972;2023-01-04T06:38:55;10.50;;;3.90;;
3587;SDS011;1808;53.596;9.972;2023-01-04T06:41:23;12.48;;;4.25;;
3587;SDS011;1808;53.596;9.972;2023-01-04T06:43:50;11.05;;;3.75;;
3587;SDS011;1808;53.596;9.972;2023-01-04T06:46:16;8.98;;;4.13;;
3587;SDS011;1808;53.596;9.972;2023-01-04T06:48:43;9.68;;;3.92;;
3587;SDS011;1808;53.596;9.972;2023-01-04T06:51:09;12.48;;;4.13;;
3587;SDS011;1808;53.596;9.972;2023-01-04T06:53:36;7.03;;;3.88;;
3587;SDS011;1808;53.596;9.972;2023-01-04T06:56:02;12.00;;;4.38;;
3587;SDS011;1808;53.596;9.972;2023-01-04T06:58:30;11.05;;;4.07;;
3587;SDS011;1808;53.596;9.972;2023-01-04T07:00:57;15.57;;;5.80;;
3587;SDS011;1808;53.596;9.972;2023-01-04T07:03:23;16.27;;;5.95;;
3587;SDS011;1808;53.596;9.972;2023-01-04T07:05:49;9.45;;;4.38;;
3587;SDS011;1808;53.596;9.972;2023-01-04T07:08:16;13.02;;;4.85;;
3587;SDS011;1808;53.596;9.972;2023-01-04T07:10:42;10.88;;;4.57;;
3587;SDS011;1808;53.596;9.972;2023-01-04T07:13:09;13.93;;;5.05;;
3587;SDS011;1808;53.596;9.972;2023-01-04T07:15:37;11.15;;;5.68;;
3587;SDS011;1808;53.596;9.972;2023-01-04T07:18:03;17.27;;;6.68;;
3587;SDS011;1808;53.596;9.972;2023-01-04T07:20:29;10.43;;;4.82;;
3587;SDS011;1808;53.596;9.972;2023-01-04T07:22:56;12.05;;;6.05;;
3587;SDS011;1808;53.596;9.972;2023-01-04T07:25:22;14.00;;;6.40;;
3587;SDS011;1808;53.596;9.972;2023-01-04T07:27:49;10.75;;;4.38;;
3587;SDS011;1808;53.596;9.972;2023-01-04T07:30:16;12.25;;;4.10;;
3587;SDS011;1808;53.596;9.972;2023-01-04T07:32:43;9.63;;;4.70;;
3587;SDS011;1808;53.596;9.972;2023-01-04T07:35:10;13.40;;;5.60;;
3587;SDS011;1808;53.596;9.972;2023-01-04T07:37:36;14.80;;;7.22;;
3587;SDS011;1808;53.596;9.972;2023-01-04T07:40:03;12.70;;;5.63;;
3587;SDS011;1808;53.596;9.972;2023-01-04T07:42:30;13.35;;;5.18;;
3587;SDS011;1808;53.596;9.972;2023-01-04T07:44:56;16.30;;;9.50;;
3587;SDS011;1808;53.596;9.972;2023-01-04T07:47:22;15.43;;;6.93;;
3587;SDS011;1808;53.596;9.972;2023-01-04T07:49:50;18.40;;;6.45;;
3587;SDS011;1808;53.596;9.972;2023-01-04T07:52:16;14.50;;;6.43;;
3587;SDS011;1808;53.596;9.972;2023-01-04T07:54:43;14.95;;;5.55;;
3587;SDS011;1808;53.596;9.972;2023-01-04T07:57:09;16.23;;;7.75;;
3587;SDS011;1808;53.596;9.972;2023-01-04T07:59:35;15.80;;;7.00;;
3587;SDS011;1808;53.596;9.972;2023-01-04T08:02:02;19.67;;;7.13;;
3587;SDS011;1808;53.596;9.972;2023-01-04T08:04:28;15.80;;;6.63;;
3587;SDS011;1808;53.596;9.972;2023-01-04T08:06:56;25.67;;;10.98;;
3587;SDS011;1808;53.596;9.972;2023-01-04T08:09:22;19.67;;;7.82;;
3587;SDS011;1808;53.596;9.972;2023-01-04T08:11:48;18.80;;;8.00;;
3587;SDS011;1808;53.596;9.972;2023-01-04T08:14:15;24.38;;;6.85;;
3587;SDS011;1808;53.596;9.972;2023-01-04T08:16:41;22.23;;;8.52;;
3587;SDS011;1808;53.596;9.972;2023-01-04T08:19:11;20.85;;;8.93;;
3587;SDS011;1808;53.596;9.972;2023-01-04T08:21:38;24.98;;;8.35;;
3587;SDS011;1808;53.596;9.972;2023-01-04T08:24:06;23.30;;;7.38;;
3587;SDS011;1808;53.596;9.972;2023-01-04T08:26:34;22.08;;;8.57;;
3587;SDS011;1808;53.596;9.972;2023-01-04T08:29:00;16.92;;;6.93;;
3587;SDS011;1808;53.596;9.972;2023-01-04T08:31:27;21.00;;;8.15;;
3587;SDS011;1808;53.596;9.972;2023-01-04T08:33:55;24.00;;;8.85;;
3587;SDS011;1808;53.596;9.972;2023-01-04T08:36:23;23.80;;;8.43;;
3587;SDS011;1808;53.596;9.972;2023-01-04T08:38:52;22.25;;;8.57;;
3587;SDS011;1808;53.596;9.972;2023-01-04T08:41:20;27.13;;;12.60;;
3587;SDS011;1808;53.596;9.972;2023-01-04T08:43:46;28.48;;;10.65;;
3587;SDS011;1808;53.596;9.972;2023-01-04T08:46:13;20.50;;;7.60;;
3587;SDS011;1808;53.596;9.972;2023-01-04T08:48:39;29.05;;;9.57;;
3587;SDS011;1808;53.596;9.972;2023-01-04T08:51:07;22.42;;;8.77;;
3587;SDS011;1808;53.596;9.972;2023-01-04T08:53:34;22.45;;;9.25;;
3587;SDS011;1808;53.596;9.972;2023-01-04T08:56:01;23.67;;;8.48;;
3587;SDS011;1808;53.596;9.972;2023-01-04T08:58:30;16.73;;;8.38;;
3587;SDS011;1808;53.596;9.972;2023-01-04T09:00:58;16.95;;;7.85;;
3587;SDS011;1808;53.596;9.972;2023-01-04T09:03:25;17.02;;;7.53;;
3587;SDS011;1808;53.596;9.972;2023-01-04T09:05:51;23.00;;;9.93;;
3587;SDS011;1808;53.596;9.972;2023-01-04T09:08:17;19.52;;;7.18;;
3587;SDS011;1808;53.596;9.972;2023-01-04T09:10:43;21.88;;;7.53;;
3587;SDS011;1808;53.596;9.972;2023-01-04T09:13:10;18.05;;;7.80;;
3587;SDS011;1808;53.596;9.972;2023-01-04T09:15:37;19.67;;;7.82;;
3587;SDS011;1808;53.596;9.972;2023-01-04T09:18:04;18.83;;;8.73;;
3587;SDS011;1808;53.596;9.972;2023-01-04T09:20:31;19.27;;;8.48;;
3587;SDS011;1808;53.596;9.972;2023-01-04T09:22:58;20.52;;;9.00;;
3587;SDS011;1808;53.596;9.972;2023-01-04T09:25:24;15.82;;;7.47;;
3587;SDS011;1808;53.596;9.972;2023-01-04T09:27:50;18.58;;;6.55;;
3587;SDS011;1808;53.596;9.972;2023-01-04T09:30:17;15.90;;;6.35;;
3587;SDS011;1808;53.596;9.972;2023-01-04T09:32:45;20.15;;;6.45;;
3587;SDS011;1808;53.596;9.972;2023-01-04T09:35:12;11.30;;;5.90;;
3587;SDS011;1808;53.596;9.972;2023-01-04T09:37:38;14.32;;;5.97;;
3587;SDS011;1808;53.596;9.972;2023-01-04T09:40:05;15.45;;;6.63;;
3587;SDS011;1808;53.596;9.972;2023-01-04T09:42:33;14.65;;;8.15;;
3587;SDS011;1808;53.596;9.972;2023-01-04T09:45:03;15.32;;;7.85;;
3587;SDS011;1808;53.596;9.972;2023-01-04T09:47:38;12.63;;;6.35;;
3587;SDS011;1808;53.596;9.972;2023-01-04T09:50:11;16.80;;;6.32;;
3587;SDS011;1808;53.596;9.972;2023-01-04T09:52:44;13.63;;;5.90;;
3587;SDS011;1808;53.596;9.972;2023-01-04T09:55:15;14.98;;;6.32;;
3587;SDS011;1808;53.596;9.972;2023-01-04T09:57:45;18.20;;;7.68;;
3587;SDS011;1808;53.596;9.972;2023-01-04T10:00:15;12.82;;;5.45;;
3587;SDS011;1808;53.596;9.972;2023-01-04T10:02:43;19.70;;;7.82;;
3587;SDS011;1808;53.596;9.972;2023-01-04T10:05:14;16.63;;;6.78;;
3587;SDS011;1808;53.596;9.972;2023-01-04T10:07:43;15.20;;;8.63;;
3587;SDS011;1808;53.596;9.972;2023-01-04T10:10:12;12.82;;;5.82;;
3587;SDS011;1808;53.596;9.972;2023-01-04T10:12:41;15.32;;;6.47;;
3587;SDS011;1808;53.596;9.972;2023-01-04T10:15:14;10.52;;;6.05;;
3587;SDS011;1808;53.596;9.972;2023-01-04T10:17:52;13.52;;;6.95;;
3587;SDS011;1808;53.596;9.972;2023-01-04T10:23:07;16.90;;;9.18;;
3587;SDS011;1808;53.596;9.972;2023-01-04T10:25:38;14.75;;;7.53;;
3587;SDS011;1808;53.596;9.972;2023-01-04T10:28:14;12.35;;;7.97;;
3587;SDS011;1808;53.596;9.972;2023-01-04T10:30:49;11.52;;;5.40;;
3587;SDS011;1808;53.596;9.972;2023-01-04T10:33:20;11.38;;;6.38;;
3587;SDS011;1808;53.596;9.972;2023-01-04T10:35:50;12.85;;;4.88;;
3587;SDS011;1808;53.596;9.972;2023-01-04T10:38:19;11.38;;;4.93;;
3587;SDS011;1808;53.596;9.972;2023-01-04T10:40:49;9.10;;;4.43;;
3587;SDS011;1808;53.596;9.972;2023-01-04T10:43:19;9.90;;;5.38;;
3587;SDS011;1808;53.596;9.972;2023-01-04T10:45:52;9.32;;;4.43;;
3587;SDS011;1808;53.596;9.972;2023-01-04T10:48:23;11.90;;;3.95;;
3587;SDS011;1808;53.596;9.972;2023-01-04T10:50:56;9.83;;;4.70;;
3587;SDS011;1808;53.596;9.972;2023-01-04T10:53:24;9.23;;;4.10;;
3587;SDS011;1808;53.596;9.972;2023-01-04T10:55:54;15.02;;;5.88;;
3587;SDS011;1808;53.596;9.972;2023-01-04T10:58:25;10.65;;;4.47;;
3587;SDS011;1808;53.596;9.972;2023-01-04T11:00:55;9.48;;;4.35;;
3587;SDS011;1808;53.596;9.972;2023-01-04T11:03:25;6.30;;;3.40;;
3587;SDS011;1808;53.596;9.972;2023-01-04T11:05:54;9.20;;;4.30;;
3587;SDS011;1808;53.596;9.972;2023-01-04T11:08:27;11.85;;;5.00;;
3587;SDS011;1808;53.596;9.972;2023-01-04T11:10:56;8.55;;;4.32;;
3587;SDS011;1808;53.596;9.972;2023-01-04T11:13:27;9.60;;;4.32;;
3587;SDS011;1808;53.596;9.972;2023-01-04T11:15:53;8.75;;;4.50;;
3587;SDS011;1808;53.596;9.972;2023-01-04T11:18:20;9.13;;;4.05;;
3587;SDS011;1808;53.596;9.972;2023-01-04T11:20:46;8.52;;;5.05;;
3587;SDS011;1808;53.596;9.972;2023-01-04T11:23:14;8.52;;;3.80;;
3587;SDS011;1808;53.596;9.972;2023-01-04T11:25:42;6.72;;;3.53;;
3587;SDS011;1808;53.596;9.972;2023-01-04T11:28:13;8.60;;;4.13;;
3587;SDS011;1808;53.596;9.972;2023-01-04T11:30:44;6.90;;;3.30;;
3587;SDS011;1808;53.596;9.972;2023-01-04T11:33:16;10.00;;;4.03;;
3587;SDS011;1808;53.596;9.972;2023-01-04T11:35:44;9.05;;;5.35;;
3587;SDS011;1808;53.596;9.972;2023-01-04T11:38:15;8.65;;;4.07;;
3587;SDS011;1808;53.596;9.972;2023-01-04T11:40:52;8.73;;;3.78;;
3587;SDS011;1808;53.596;9.972;2023-01-04T11:43:20;8.05;;;3.50;;
3587;SDS011;1808;53.596;9.972;2023-01-04T11:45:52;8.18;;;3.53;;
3587;SDS011;1808;53.596;9.972;2023-01-04T11:48:28;8.52;;;4.22;;
3587;SDS011;1808;53.596;9.972;2023-01-04T11:50:56;9.50;;;4.40;;
3587;SDS011;1808;53.596;9.972;2023-01-04T11:53:25;11.38;;;4.15;;
3587;SDS011;1808;53.596;9.972;2023-01-04T11:56:07;7.40;;;4.30;;
3587;SDS011;1808;53.596;9.972;2023-01-04T11:58:35;7.97;;;4.10;;
3587;SDS011;1808;53.596;9.972;2023-01-04T12:01:02;8.48;;;4.50;;
3587;SDS011;1808;53.596;9.972;2023-01-04T12:03:30;9.30;;;4.25;;
3587;SDS011;1808;53.596;9.972;2023-01-04T12:05:57;7.70;;;4.10;;
3587;SDS011;1808;53.596;9.972;2023-01-04T12:08:28;9.00;;;3.90;;
3587;SDS011;1808;53.596;9.972;2023-01-04T12:10:56;11.60;;;4.90;;
3587;SDS011;1808;53.596;9.972;2023-01-04T12:13:23;9.15;;;5.35;;
3587;SDS011;1808;53.596;9.972;2023-01-04T12:15:54;8.60;;;4.45;;
3587;SDS011;1808;53.596;9.972;2023-01-04T12:18:26;10.70;;;4.65;;
3587;SDS011;1808;53.596;9.972;2023-01-04T12:20:54;8.05;;;3.90;;
3587;SDS011;1808;53.596;9.972;2023-01-04T12:23:21;5.38;;;2.78;;
3587;SDS011;1808;53.596;9.972;2023-01-04T12:25:49;9.82;;;3.40;;
3587;SDS011;1808;53.596;9.972;2023-01-04T12:28:32;7.18;;;4.20;;
3587;SDS011;1808;53.596;9.972;2023-01-04T12:33:52;6.90;;;3.38;;
3587;SDS011;1808;53.596;9.972;2023-01-04T12:36:21;7.95;;;4.20;;
3587;SDS011;1808;53.596;9.972;2023-01-04T12:39:25;6.50;;;3.60;;
3587;SDS011;1808;53.596;9.972;2023-01-04T12:47:46;6.88;;;4.32;;
3587;SDS011;1808;53.596;9.972;2023-01-04T12:53:50;6.90;;;3.28;;
3587;SDS011;1808;53.596;9.972;2023-01-04T12:56:21;8.63;;;4.72;;
3587;SDS011;1808;53.596;9.972;2023-01-04T13:01:34;8.93;;;5.55;;
3587;SDS011;1808;53.596;9.972;2023-01-04T13:04:02;10.48;;;6.00;;
3587;SDS011;1808;53.596;9.972;2023-01-04T13:06:45;10.57;;;5.45;;
3587;SDS011;1808;53.596;9.972;2023-01-04T13:09:14;8.27;;;4.55;;
3587;SDS011;1808;53.596;9.972;2023-01-04T13:11:47;9.97;;;4.47;;
3587;SDS011;1808;53.596;9.972;2023-01-04T13:14:30;9.80;;;5.70;;
3587;SDS011;1808;53.596;9.972;2023-01-04T13:19:46;11.60;;;5.45;;
3587;SDS011;1808;53.596;9.972;2023-01-04T13:22:17;12.55;;;5.47;;
3587;SDS011;1808;53.596;9.972;2023-01-04T13:24:45;8.82;;;4.15;;
3587;SDS011;1808;53.596;9.972;2023-01-04T13:27:14;11.75;;;5.70;;
3587;SDS011;1808;53.596;9.972;2023-01-04T13:29:43;10.43;;;5.50;;
3587;SDS011;1808;53.596;9.972;2023-01-04T13:32:10;12.48;;;6.20;;
3587;SDS011;1808;53.596;9.972;2023-01-04T13:34:40;13.18;;;5.32;;
3587;SDS011;1808;53.596;9.972;2023-01-04T13:37:18;14.50;;;5.90;;
3587;SDS011;1808;53.596;9.972;2023-01-04T13:39:51;16.17;;;5.43;;
3587;SDS011;1808;53.596;9.972;2023-01-04T13:42:27;10.50;;;6.00;;
3587;SDS011;1808;53.596;9.972;2023-01-04T13:45:00;12.68;;;5.50;;
3587;SDS011;1808;53.596;9.972;2023-01-04T13:47:37;8.82;;;4.97;;
3587;SDS011;1808;53.596;9.972;2023-01-04T13:50:05;13.32;;;6.07;;
3587;SDS011;1808;53.596;9.972;2023-01-04T13:52:40;12.68;;;6.40;;
3587;SDS011;1808;53.596;9.972;2023-01-04T13:55:10;13.65;;;6.72;;
3587;SDS011;1808;53.596;9.972;2023-01-04T13:57:50;9.35;;;5.38;;
3587;SDS011;1808;53.596;9.972;2023-01-04T14:00:19;13.73;;;5.28;;
3587;SDS011;1808;53.596;9.972;2023-01-04T14:02:45;10.75;;;5.65;;
3587;SDS011;1808;53.596;9.972;2023-01-04T14:05:13;15.68;;;7.35;;
3587;SDS011;1808;53.596;9.972;2023-01-04T14:07:41;13.13;;;7.03;;
3587;SDS011;1808;53.596;9.972;2023-01-04T14:10:12;13.50;;;6.45;;
3587;SDS011;1808;53.596;9.972;2023-01-04T14:12:42;13.38;;;5.13;;
3587;SDS011;1808;53.596;9.972;2023-01-04T14:15:13;9.77;;;5.18;;
3587;SDS011;1808;53.596;9.972;2023-01-04T14:17:47;15.07;;;5.18;;
3587;SDS011;1808;53.596;9.972;2023-01-04T14:20:30;11.15;;;5.20;;
3587;SDS011;1808;53.596;9.972;2023-01-04T14:22:58;12.15;;;6.47;;
3587;SDS011;1808;53.596;9.972;2023-01-04T14:31:11;16.60;;;6.05;;
3587;SDS011;1808;53.596;9.972;2023-01-04T14:33:42;11.43;;;3.42;;
3587;SDS011;1808;53.596;9.972;2023-01-04T14:36:11;7.57;;;3.35;;
3587;SDS011;1808;53.596;9.972;2023-01-04T14:38:40;13.18;;;3.38;;
3587;SDS011;1808;53.596;9.972;2023-01-04T14:41:11;8.65;;;2.83;;
3587;SDS011;1808;53.596;9.972;2023-01-04T14:43:44;8.73;;;3.03;;
3587;SDS011;1808;53.596;9.972;2023-01-04T14:46:12;21.40;;;5.22;;
3587;SDS011;1808;53.596;9.972;2023-01-04T14:48:38;14.18;;;3.22;;
3587;SDS011;1808;53.596;9.972;2023-01-04T14:51:06;13.63;;;3.50;;
3587;SDS011;1808;53.596;9.972;2023-01-04T14:53:33;14.30;;;3.65;;
3587;SDS011;1808;53.596;9.972;2023-01-04T14:56:00;19.70;;;2.70;;
3587;SDS011;1808;53.596;9.972;2023-01-04T14:58:26;22.65;;;3.70;;
3587;SDS011;1808;53.596;9.972;2023-01-04T15:00:53;15.88;;;3.30;;
3587;SDS011;1808;53.596;9.972;2023-01-04T15:03:19;23.45;;;4.10;;
3587;SDS011;1808;53.596;9.972;2023-01-04T15:05:45;13.13;;;2.70;;
3587;SDS011;1808;53.596;9.972;2023-01-04T15:08:13;19.08;;;3.65;;
3587;SDS011;1808;53.596;9.972;2023-01-04T15:10:39;15.68;;;3.70;;
3587;SDS011;1808;53.596;9.972;2023-01-04T15:13:06;12.02;;;4.57;;
3587;SDS011;1808;53.596;9.972;2023-01-04T15:15:32;20.80;;;3.33;;
3587;SDS011;1808;53.596;9.972;2023-01-04T15:17:59;14.07;;;2.83;;
3587;SDS011;1808;53.596;9.972;2023-01-04T15:20:25;21.40;;;2.92;;
3587;SDS011;1808;53.596;9.972;2023-01-04T15:22:52;17.77;;;3.67;;
3587;SDS011;1808;53.596;9.972;2023-01-04T15:25:19;18.30;;;2.58;;
3587;SDS011;1808;53.596;9.972;2023-01-04T15:27:46;20.70;;;3.70;;
3587;SDS011;1808;53.596;9.972;2023-01-04T15:30:12;21.15;;;3.38;;
3587;SDS011;1808;53.596;9.972;2023-01-04T15:32:39;16.08;;;3.33;;
3587;SDS011;1808;53.596;9.972;2023-01-04T15:35:06;17.48;;;3.72;;
3587;SDS011;1808;53.596;9.972;2023-01-04T15:37:33;15.50;;;4.50;;
3587;SDS011;1808;53.596;9.972;2023-01-04T15:39:59;16.13;;;3.03;;
3587;SDS011;1808;53.596;9.972;2023-01-04T15:42:27;26.35;;;4.03;;
3587;SDS011;1808;53.596;9.972;2023-01-04T15:45:11;16.33;;;3.08;;
3587;SDS011;1808;53.596;9.972;2023-01-04T15:47:38;19.17;;;3.13;;
3587;SDS011;1808;53.596;9.972;2023-01-04T15:50:04;21.33;;;4.10;;
3587;SDS011;1808;53.596;9.972;2023-01-04T15:52:31;17.65;;;4.45;;
3587;SDS011;1808;53.596;9.972;2023-01-04T15:54:57;24.55;;;4.50;;